Sy Capt. Cook — DJ4343 — position and weather

sailwx.info

Track history (hours):
 
Tides and Currents Weather Stations Pressure Air Temp Water Temp Dewpoint Dewpoint Depression Visibility Wind Speed Wind Dir Waves Ship Positions

Sy Capt. Cook

Last reported at 2016-Sep-06 10:29 UTC. Time now 2016-Sep-25 12:21 UTC.
Position N 28°02' W 015°22'.
Warning: this ship's position is 19 days out of date.

Length 13 m.

Type: Sailing vessel. MMSI: 211508500.

Date/timePositionNaut miles runAvg speedWind from/ knotsBaromVisibWave heightAir tempDewpointWater temp
2016-Sep-06 10:29N 28°02' W 015°22'5 4.7
2016-Sep-06 09:29N 28°06' W 015°24'  
2016-Sep-03 23:25N 28°08' W 015°26'0 0.0
2016-Sep-03 22:28N 28°08' W 015°26'0 0.0
2016-Sep-03 21:28N 28°08' W 015°26'0 0.0
2016-Sep-03 20:28N 28°08' W 015°26'0 0.0
2016-Sep-03 19:31N 28°08' W 015°26'0 0.0
2016-Sep-03 18:31N 28°08' W 015°26'0 0.0
2016-Sep-03 17:31N 28°08' W 015°26'0 0.0
2016-Sep-03 16:31N 28°08' W 015°26'0 0.0
2016-Sep-03 15:33N 28°08' W 015°26'0 0.3
2016-Sep-03 14:30N 28°08' W 015°25'2 2.1
2016-Sep-03 13:29N 28°09' W 015°23'3 2.8
2016-Sep-03 12:33N 28°06' W 015°22'0 0.4
2016-Sep-03 11:33N 28°06' W 015°22'2 2.3
2016-Sep-03 10:33N 28°07' W 015°24'  
Track history (hours):
 
Tides and Currents Weather Stations Pressure Air Temp Water Temp Dewpoint Dewpoint Depression Visibility Wind Speed Wind Dir Waves Ship Positions

Sy Capt. Cook

Last reported at 2016-Sep-06 10:29 UTC. Time now 2016-Sep-25 12:21 UTC.
Position N 28°02' W 015°22'.
Warning: this ship's position is 19 days out of date.

Length 13 m.

Type: Sailing vessel. MMSI: 211508500.

Date/timePositionNaut miles runAvg speedWind from/ knotsBaromVisibWave heightAir tempDewpointWater temp
2016-Sep-06 10:29N 28°02' W 015°22'5 4.7
2016-Sep-06 09:29N 28°06' W 015°24'  
2016-Sep-03 23:25N 28°08' W 015°26'0 0.0
2016-Sep-03 22:28N 28°08' W 015°26'0 0.0
2016-Sep-03 21:28N 28°08' W 015°26'0 0.0
2016-Sep-03 20:28N 28°08' W 015°26'0 0.0
2016-Sep-03 19:31N 28°08' W 015°26'0 0.0
2016-Sep-03 18:31N 28°08' W 015°26'0 0.0
2016-Sep-03 17:31N 28°08' W 015°26'0 0.0
2016-Sep-03 16:31N 28°08' W 015°26'0 0.0
2016-Sep-03 15:33N 28°08' W 015°26'0 0.3
2016-Sep-03 14:30N 28°08' W 015°25'2 2.1
2016-Sep-03 13:29N 28°09' W 015°23'3 2.8
2016-Sep-03 12:33N 28°06' W 015°22'0 0.4
2016-Sep-03 11:33N 28°06' W 015°22'2 2.3
2016-Sep-03 10:33N 28°07' W 015°24'  

Dump ship's entire track history